NJE161 LOWI-LOWW
Flight info
| Callsign | NJE161 |
|---|---|
| Flight time | 0h 41m |
| Altitude | 29000 |
| Route | RTT DCT NEMAL NEMAL2W |
| Aircraft | C25B/M-SDE2E3FGHRWXY/LB1 |
Departure
| Time | 2026-04-20 17:47 |
|---|---|
| Airport | Innsbruck Airport (LOWI) |
Arrival
| Time | 2026-04-20 18:28 |
|---|---|
| Airport | Vienna International Airport (LOWW) |
| Time | Latitude | Longitude | Altitude | Speed | Heading |
|---|---|---|---|---|---|
| 2026-04-20 17:16 | 47.25871 | 11.35370 | 1893 ft | 0 kts | 261° |
| 2026-04-20 17:43 | 47.25872 | 11.35341 | 1902 ft | 7 kts | 286° |
| 2026-04-20 17:43 | 47.25887 | 11.35268 | 1900 ft | 8 kts | 286° |
| 2026-04-20 17:43 | 47.25891 | 11.35176 | 1893 ft | 10 kts | 260° |
| 2026-04-20 17:44 | 47.25876 | 11.35031 | 1899 ft | 17 kts | 261° |
| 2026-04-20 17:44 | 47.25852 | 11.34825 | 1902 ft | 23 kts | 260° |
| 2026-04-20 17:44 | 47.25824 | 11.34571 | 1902 ft | 27 kts | 261° |
| 2026-04-20 17:44 | 47.25793 | 11.34283 | 1894 ft | 29 kts | 259° |
| 2026-04-20 17:45 | 47.25773 | 11.33985 | 1902 ft | 25 kts | 284° |
| 2026-04-20 17:45 | 47.25850 | 11.33782 | 1896 ft | 21 kts | 308° |
| 2026-04-20 17:45 | 47.25934 | 11.33614 | 1903 ft | 20 kts | 289° |
| 2026-04-20 17:45 | 47.25916 | 11.33418 | 1901 ft | 21 kts | 261° |
| 2026-04-20 17:46 | 47.25866 | 11.33249 | 1901 ft | 18 kts | 232° |
| 2026-04-20 17:46 | 47.25836 | 11.33114 | 1893 ft | 14 kts | 278° |
| 2026-04-20 17:46 | 47.25883 | 11.33131 | 1896 ft | 12 kts | 80° |
| 2026-04-20 17:46 | 47.25925 | 11.33505 | 1902 ft | 90 kts | 78° |
| 2026-04-20 17:47 | 47.26080 | 11.34891 | 2226 ft | 164 kts | 88° |
| 2026-04-20 17:47 | 47.26148 | 11.36660 | 3038 ft | 187 kts | 83° |
| 2026-04-20 17:47 | 47.26377 | 11.38495 | 4122 ft | 181 kts | 72° |
| 2026-04-20 17:47 | 47.26726 | 11.40263 | 5225 ft | 182 kts | 75° |
| 2026-04-20 17:48 | 47.27017 | 11.42131 | 6180 ft | 191 kts | 78° |
| 2026-04-20 17:48 | 47.27268 | 11.44077 | 7243 ft | 196 kts | 76° |
| 2026-04-20 17:48 | 47.27644 | 11.46056 | 8309 ft | 206 kts | 70° |
| 2026-04-20 17:48 | 47.27904 | 11.47408 | 9121 ft | 208 kts | 72° |
| 2026-04-20 17:49 | 47.28284 | 11.49508 | 10284 ft | 216 kts | 71° |
| 2026-04-20 17:49 | 47.28694 | 11.51673 | 11328 ft | 224 kts | 71° |
| 2026-04-20 17:49 | 47.29121 | 11.53929 | 12394 ft | 232 kts | 70° |
| 2026-04-20 17:49 | 47.29563 | 11.56262 | 13464 ft | 240 kts | 70° |
| 2026-04-20 17:50 | 47.30018 | 11.58675 | 14458 ft | 247 kts | 70° |
| 2026-04-20 17:50 | 47.30478 | 11.61143 | 15466 ft | 252 kts | 69° |
| 2026-04-20 17:50 | 47.30958 | 11.63656 | 16464 ft | 258 kts | 66° |
| 2026-04-20 17:50 | 47.31750 | 11.66018 | 17313 ft | 261 kts | 46° |
| 2026-04-20 17:51 | 47.32848 | 11.68266 | 17828 ft | 288 kts | 46° |
| 2026-04-20 17:51 | 47.34047 | 11.70798 | 18357 ft | 311 kts | 46° |
| 2026-04-20 17:51 | 47.35282 | 11.73448 | 19239 ft | 317 kts | 47° |
| 2026-04-20 17:51 | 47.36479 | 11.76229 | 20095 ft | 326 kts | 50° |
| 2026-04-20 17:52 | 47.37591 | 11.79197 | 20946 ft | 335 kts | 54° |
| 2026-04-20 17:52 | 47.38690 | 11.82274 | 21800 ft | 342 kts | 53° |
| 2026-04-20 17:52 | 47.39846 | 11.85360 | 22689 ft | 346 kts | 52° |
| 2026-04-20 17:52 | 47.41041 | 11.88495 | 23477 ft | 355 kts | 51° |
| 2026-04-20 17:53 | 47.42251 | 11.91709 | 24235 ft | 360 kts | 52° |
| 2026-04-20 17:53 | 47.43434 | 11.94993 | 25014 ft | 365 kts | 55° |
| 2026-04-20 17:53 | 47.44518 | 11.98413 | 25811 ft | 369 kts | 57° |
| 2026-04-20 17:53 | 47.45610 | 12.01875 | 26609 ft | 372 kts | 56° |
| 2026-04-20 17:54 | 47.46741 | 12.05329 | 27437 ft | 374 kts | 56° |
| 2026-04-20 17:54 | 47.47843 | 12.08758 | 28422 ft | 372 kts | 57° |
| 2026-04-20 17:54 | 47.48950 | 12.12242 | 29026 ft | 383 kts | 57° |
| 2026-04-20 17:54 | 47.50143 | 12.15928 | 29033 ft | 408 kts | 57° |
| 2026-04-20 17:55 | 47.51392 | 12.19826 | 29036 ft | 430 kts | 58° |
| 2026-04-20 17:55 | 47.52687 | 12.23914 | 29036 ft | 447 kts | 58° |
| 2026-04-20 17:55 | 47.54026 | 12.28144 | 29032 ft | 460 kts | 59° |
| 2026-04-20 17:56 | 47.56806 | 12.36885 | 29037 ft | 479 kts | 58° |
| 2026-04-20 17:56 | 47.59653 | 12.45896 | 29036 ft | 484 kts | 59° |
| 2026-04-20 17:56 | 47.61048 | 12.50355 | 29033 ft | 470 kts | 58° |
| 2026-04-20 17:57 | 47.62412 | 12.54680 | 29030 ft | 456 kts | 58° |
| 2026-04-20 17:57 | 47.65040 | 12.63020 | 29017 ft | 438 kts | 58° |
| 2026-04-20 17:58 | 47.67579 | 12.71125 | 29021 ft | 429 kts | 58° |
| 2026-04-20 17:58 | 47.70064 | 12.79084 | 29015 ft | 425 kts | 58° |
| 2026-04-20 17:59 | 47.72528 | 12.87020 | 29026 ft | 421 kts | 57° |
| 2026-04-20 17:59 | 47.74975 | 12.94877 | 29012 ft | 418 kts | 57° |
| 2026-04-20 18:00 | 47.77396 | 13.02719 | 29011 ft | 415 kts | 57° |
| 2026-04-20 18:00 | 47.79785 | 13.10461 | 29012 ft | 414 kts | 57° |
| 2026-04-20 18:01 | 47.82168 | 13.18246 | 29019 ft | 412 kts | 57° |
| 2026-04-20 18:01 | 47.84535 | 13.25938 | 29064 ft | 411 kts | 57° |
| 2026-04-20 18:02 | 47.86894 | 13.33675 | 29072 ft | 410 kts | 57° |
| 2026-04-20 18:02 | 47.89261 | 13.41435 | 29073 ft | 411 kts | 57° |
| 2026-04-20 18:03 | 47.91338 | 13.49426 | 29065 ft | 422 kts | 70° |
| 2026-04-20 18:03 | 47.91769 | 13.53800 | 29061 ft | 429 kts | 82° |
| 2026-04-20 18:03 | 47.91770 | 13.58255 | 29068 ft | 431 kts | 86° |
| 2026-04-20 18:04 | 47.91738 | 13.67152 | 29078 ft | 431 kts | 86° |
| 2026-04-20 18:04 | 47.91684 | 13.76093 | 29072 ft | 431 kts | 86° |
| 2026-04-20 18:04 | 47.91656 | 13.80492 | 29052 ft | 406 kts | 86° |
| 2026-04-20 18:05 | 47.91606 | 13.88476 | 29052 ft | 367 kts | 85° |
| 2026-04-20 18:05 | 47.91586 | 13.92167 | 29052 ft | 354 kts | 85° |
| 2026-04-20 18:05 | 47.91558 | 13.95776 | 29068 ft | 348 kts | 85° |
| 2026-04-20 18:06 | 47.91544 | 13.99563 | 29078 ft | 382 kts | 85° |
| 2026-04-20 18:06 | 47.91515 | 14.03698 | 29083 ft | 413 kts | 86° |
| 2026-04-20 18:06 | 47.91463 | 14.08114 | 29078 ft | 438 kts | 87° |
| 2026-04-20 18:06 | 47.91425 | 14.12761 | 29082 ft | 459 kts | 86° |
| 2026-04-20 18:07 | 47.91405 | 14.17617 | 29050 ft | 477 kts | 87° |
| 2026-04-20 18:07 | 47.91341 | 14.22678 | 28647 ft | 500 kts | 88° |
| 2026-04-20 18:07 | 47.91272 | 14.27885 | 28139 ft | 496 kts | 88° |
| 2026-04-20 18:07 | 47.91224 | 14.32960 | 27601 ft | 481 kts | 87° |
| 2026-04-20 18:08 | 47.91184 | 14.37880 | 27078 ft | 469 kts | 88° |
| 2026-04-20 18:08 | 47.91116 | 14.42638 | 26573 ft | 461 kts | 88° |
| 2026-04-20 18:08 | 47.91065 | 14.47377 | 26086 ft | 455 kts | 88° |
| 2026-04-20 18:08 | 47.91012 | 14.52075 | 25596 ft | 452 kts | 88° |
| 2026-04-20 18:09 | 47.90953 | 14.56748 | 25127 ft | 448 kts | 89° |
| 2026-04-20 18:09 | 47.90895 | 14.61380 | 24655 ft | 446 kts | 89° |
| 2026-04-20 18:09 | 47.90831 | 14.65977 | 24186 ft | 441 kts | 89° |
| 2026-04-20 18:09 | 47.90770 | 14.70514 | 23722 ft | 435 kts | 89° |
| 2026-04-20 18:10 | 47.90709 | 14.74994 | 23210 ft | 429 kts | 89° |
| 2026-04-20 18:10 | 47.90643 | 14.79426 | 22754 ft | 423 kts | 89° |
| 2026-04-20 18:10 | 47.90579 | 14.83771 | 22306 ft | 416 kts | 89° |
| 2026-04-20 18:10 | 47.90517 | 14.87994 | 21879 ft | 410 kts | 90° |
| 2026-04-20 18:11 | 47.90444 | 14.92226 | 21409 ft | 407 kts | 90° |
| 2026-04-20 18:11 | 47.90384 | 14.96439 | 20920 ft | 404 kts | 90° |
| 2026-04-20 18:11 | 47.90319 | 15.00614 | 20407 ft | 401 kts | 89° |
| 2026-04-20 18:11 | 47.90245 | 15.04764 | 19929 ft | 398 kts | 90° |
| 2026-04-20 18:12 | 47.90260 | 15.08883 | 19441 ft | 395 kts | 85° |
| 2026-04-20 18:12 | 47.90364 | 15.12956 | 19009 ft | 394 kts | 86° |
| 2026-04-20 18:12 | 47.90440 | 15.17053 | 18568 ft | 395 kts | 88° |
| 2026-04-20 18:12 | 47.90416 | 15.21150 | 18106 ft | 395 kts | 89° |
| 2026-04-20 18:13 | 47.90420 | 15.25240 | 17617 ft | 395 kts | 88° |
| 2026-04-20 18:13 | 47.90471 | 15.29325 | 17127 ft | 394 kts | 87° |
| 2026-04-20 18:13 | 47.90504 | 15.33403 | 16645 ft | 393 kts | 88° |
| 2026-04-20 18:13 | 47.90518 | 15.37463 | 16172 ft | 391 kts | 88° |
| 2026-04-20 18:14 | 47.90544 | 15.41497 | 15712 ft | 387 kts | 89° |
| 2026-04-20 18:14 | 47.90551 | 15.45451 | 15254 ft | 385 kts | 88° |
| 2026-04-20 18:14 | 47.90579 | 15.49427 | 14803 ft | 383 kts | 88° |
| 2026-04-20 18:14 | 47.90600 | 15.53390 | 14359 ft | 382 kts | 88° |
| 2026-04-20 18:15 | 47.90625 | 15.57350 | 13920 ft | 381 kts | 88° |
| 2026-04-20 18:15 | 47.90650 | 15.61288 | 13425 ft | 379 kts | 88° |
| 2026-04-20 18:15 | 47.90668 | 15.65209 | 12941 ft | 377 kts | 88° |
| 2026-04-20 18:15 | 47.90687 | 15.69122 | 12461 ft | 376 kts | 88° |
| 2026-04-20 18:16 | 47.90698 | 15.73012 | 11988 ft | 374 kts | 88° |
| 2026-04-20 18:16 | 47.90702 | 15.76895 | 11523 ft | 373 kts | 88° |
| 2026-04-20 18:16 | 47.90703 | 15.80758 | 11065 ft | 372 kts | 88° |
| 2026-04-20 18:16 | 47.90699 | 15.84565 | 10618 ft | 371 kts | 88° |
| 2026-04-20 18:17 | 47.90693 | 15.88398 | 10171 ft | 368 kts | 88° |
| 2026-04-20 18:17 | 47.90677 | 15.92205 | 9815 ft | 363 kts | 88° |
| 2026-04-20 18:17 | 47.90653 | 15.95936 | 9534 ft | 357 kts | 88° |
| 2026-04-20 18:17 | 47.90616 | 15.99600 | 9266 ft | 350 kts | 89° |
| 2026-04-20 18:18 | 47.90591 | 16.03209 | 8994 ft | 346 kts | 87° |
| 2026-04-20 18:18 | 47.90574 | 16.06792 | 8717 ft | 343 kts | 88° |
| 2026-04-20 18:18 | 47.90543 | 16.10341 | 8459 ft | 341 kts | 88° |
| 2026-04-20 18:18 | 47.90519 | 16.13867 | 8193 ft | 338 kts | 88° |
| 2026-04-20 18:19 | 47.90490 | 16.17317 | 7940 ft | 336 kts | 88° |
| 2026-04-20 18:19 | 47.90468 | 16.20800 | 7681 ft | 335 kts | 88° |
| 2026-04-20 18:19 | 47.90440 | 16.24261 | 7425 ft | 333 kts | 88° |
| 2026-04-20 18:19 | 47.90415 | 16.27704 | 7172 ft | 332 kts | 88° |
| 2026-04-20 18:20 | 47.90388 | 16.31140 | 6918 ft | 330 kts | 88° |
| 2026-04-20 18:20 | 47.90386 | 16.34508 | 6668 ft | 318 kts | 88° |
| 2026-04-20 18:20 | 47.90380 | 16.37743 | 6422 ft | 307 kts | 88° |
| 2026-04-20 18:20 | 47.90385 | 16.40887 | 6157 ft | 300 kts | 88° |
| 2026-04-20 18:21 | 47.90381 | 16.43933 | 5978 ft | 292 kts | 88° |
| 2026-04-20 18:21 | 47.90378 | 16.46927 | 5971 ft | 280 kts | 88° |
| 2026-04-20 18:21 | 47.90370 | 16.49791 | 5714 ft | 277 kts | 88° |
| 2026-04-20 18:21 | 47.90355 | 16.52618 | 5452 ft | 267 kts | 88° |
| 2026-04-20 18:22 | 47.90339 | 16.55324 | 5197 ft | 255 kts | 88° |
| 2026-04-20 18:22 | 47.90319 | 16.57917 | 4935 ft | 244 kts | 88° |
| 2026-04-20 18:22 | 47.90288 | 16.60379 | 4662 ft | 231 kts | 88° |
| 2026-04-20 18:22 | 47.90253 | 16.62721 | 4392 ft | 221 kts | 88° |
| 2026-04-20 18:23 | 47.90466 | 16.64877 | 4102 ft | 202 kts | 60° |
| 2026-04-20 18:23 | 47.91423 | 16.66156 | 3810 ft | 177 kts | 17° |
| 2026-04-20 18:23 | 47.92556 | 16.66079 | 3534 ft | 163 kts | 340° |
| 2026-04-20 18:23 | 47.93633 | 16.65566 | 3268 ft | 165 kts | 347° |
| 2026-04-20 18:24 | 47.94718 | 16.65086 | 3008 ft | 159 kts | 342° |
| 2026-04-20 18:24 | 47.95723 | 16.64673 | 2979 ft | 145 kts | 345° |
| 2026-04-20 18:24 | 47.96682 | 16.64262 | 2980 ft | 141 kts | 342° |
| 2026-04-20 18:24 | 47.97621 | 16.63876 | 2913 ft | 139 kts | 346° |
| 2026-04-20 18:25 | 47.98480 | 16.63509 | 2756 ft | 120 kts | 342° |
| 2026-04-20 18:25 | 47.99241 | 16.63192 | 2592 ft | 113 kts | 347° |
| 2026-04-20 18:25 | 47.99994 | 16.62873 | 2447 ft | 112 kts | 342° |
| 2026-04-20 18:25 | 48.00754 | 16.62554 | 2293 ft | 114 kts | 347° |
| 2026-04-20 18:26 | 48.01525 | 16.62228 | 2139 ft | 116 kts | 342° |
| 2026-04-20 18:26 | 48.02308 | 16.61901 | 1982 ft | 117 kts | 347° |
| 2026-04-20 18:26 | 48.03089 | 16.61566 | 1824 ft | 117 kts | 341° |
| 2026-04-20 18:26 | 48.03875 | 16.61237 | 1664 ft | 117 kts | 347° |
| 2026-04-20 18:27 | 48.04661 | 16.60908 | 1499 ft | 118 kts | 342° |
| 2026-04-20 18:27 | 48.05453 | 16.60572 | 1335 ft | 119 kts | 347° |
| 2026-04-20 18:27 | 48.06250 | 16.60232 | 1161 ft | 119 kts | 341° |
| 2026-04-20 18:27 | 48.07041 | 16.59897 | 1005 ft | 119 kts | 346° |
| 2026-04-20 18:28 | 48.07833 | 16.59598 | 844 ft | 116 kts | 345° |
| 2026-04-20 18:28 | 48.08611 | 16.59242 | 717 ft | 117 kts | 344° |
| 2026-04-20 18:28 | 48.09368 | 16.58920 | 608 ft | 104 kts | 348° |
| 2026-04-20 18:28 | 48.09896 | 16.58698 | 605 ft | 40 kts | 342° |
| 2026-04-20 18:29 | 48.10020 | 16.58587 | 605 ft | 12 kts | 304° |
| 2026-04-20 18:29 | 48.10051 | 16.58506 | 613 ft | 10 kts | 295° |
| 2026-04-20 18:29 | 48.10085 | 16.58410 | 610 ft | 6 kts | 301° |
| 2026-04-20 18:29 | 48.10116 | 16.58350 | 615 ft | 10 kts | 311° |
| 2026-04-20 18:30 | 48.10179 | 16.58323 | 611 ft | 11 kts | 330° |
| 2026-04-20 18:30 | 48.10258 | 16.58263 | 605 ft | 15 kts | 334° |
| 2026-04-20 18:30 | 48.10371 | 16.58211 | 614 ft | 19 kts | 345° |
| 2026-04-20 18:30 | 48.10504 | 16.58160 | 607 ft | 21 kts | 345° |
| 2026-04-20 18:31 | 48.10657 | 16.58098 | 608 ft | 24 kts | 344° |
| 2026-04-20 18:31 | 48.10826 | 16.58028 | 605 ft | 24 kts | 344° |
| 2026-04-20 18:31 | 48.10968 | 16.57918 | 608 ft | 24 kts | 315° |
| 2026-04-20 18:31 | 48.11058 | 16.57739 | 605 ft | 20 kts | 296° |
| 2026-04-20 18:32 | 48.11123 | 16.57548 | 608 ft | 21 kts | 298° |
| 2026-04-20 18:32 | 48.11194 | 16.57352 | 611 ft | 22 kts | 297° |
| 2026-04-20 18:32 | 48.11260 | 16.57149 | 612 ft | 22 kts | 293° |
| 2026-04-20 18:32 | 48.11322 | 16.56935 | 611 ft | 23 kts | 295° |
| 2026-04-20 18:33 | 48.11391 | 16.56723 | 609 ft | 23 kts | 296° |
| 2026-04-20 18:33 | 48.11460 | 16.56512 | 613 ft | 23 kts | 297° |
| 2026-04-20 18:33 | 48.11532 | 16.56298 | 613 ft | 23 kts | 297° |
| 2026-04-20 18:33 | 48.11604 | 16.56080 | 613 ft | 23 kts | 292° |
| 2026-04-20 18:34 | 48.11673 | 16.55856 | 605 ft | 24 kts | 297° |